createdAt,value
2023-02-12T00:01:39.791Z,75.37
2023-02-12T00:04:07.750Z,75.11
2023-02-12T00:06:35.824Z,75.25
2023-02-12T00:09:03.721Z,75.79
2023-02-12T00:11:31.540Z,75.91
2023-02-12T00:13:59.431Z,75.69
2023-02-12T00:16:29.203Z,75.55
2023-02-12T00:18:58.596Z,75.45
2023-02-12T00:21:26.830Z,75.73
2023-02-12T00:23:54.876Z,75.22
2023-02-12T00:26:23.770Z,75.16
2023-02-12T00:28:52.353Z,75.27
2023-02-12T00:31:28.858Z,76.28
2023-02-12T00:33:59.374Z,76.77
2023-02-12T00:36:30.416Z,76.29
2023-02-12T00:38:58.881Z,75.74
2023-02-12T00:41:27.368Z,76.21
2023-02-12T00:43:55.171Z,76.56
2023-02-12T00:46:23.784Z,76.42
2023-02-12T00:48:52.077Z,76.79
2023-02-12T00:51:19.935Z,76.90
2023-02-12T00:53:47.908Z,77.08
2023-02-12T00:56:15.974Z,77.41
2023-02-12T00:58:44.352Z,77.85
2023-02-12T01:01:12.365Z,77.60
2023-02-12T01:03:40.394Z,77.67
2023-02-12T01:06:08.263Z,77.72
2023-02-12T01:08:36.058Z,77.86
2023-02-12T01:11:06.305Z,77.75
2023-02-12T01:13:35.249Z,77.74
2023-02-12T01:16:15.473Z,77.65
2023-02-12T01:18:43.776Z,77.59
2023-02-12T01:21:17.981Z,77.58
2023-02-12T01:23:46.972Z,77.74
2023-02-12T01:26:17.271Z,77.49
2023-02-12T01:28:51.168Z,77.64
2023-02-12T01:31:22.749Z,77.98
2023-02-12T01:33:53.543Z,78.42
2023-02-12T01:36:22.281Z,79.39
2023-02-12T01:38:50.977Z,78.63
2023-02-12T01:41:24.676Z,78.36
2023-02-12T01:44:11.584Z,78.09
2023-02-12T01:46:40.903Z,77.85
2023-02-12T01:49:15.444Z,77.83
2023-02-12T01:51:46.307Z,77.85
2023-02-12T01:54:17.789Z,78.23
2023-02-12T01:56:46.378Z,79.04
2023-02-12T01:59:14.348Z,78.54
2023-02-12T02:01:42.267Z,78.41
2023-02-12T02:04:17.972Z,78.07
2023-02-12T02:07:04.369Z,78.50
2023-02-12T02:09:36.318Z,78.76
2023-02-12T02:12:23.332Z,78.60
2023-02-12T02:14:54.895Z,78.25
2023-02-12T02:18:01.147Z,78.49
2023-02-12T02:21:04.955Z,78.15
2023-02-12T02:23:51.593Z,78.44
2023-02-12T02:26:43.902Z,78.54
2023-02-12T02:29:43.321Z,78.11
2023-02-12T02:32:29.594Z,78.18
2023-02-12T02:35:27.303Z,78.16
2023-02-12T02:38:23.401Z,78.14
2023-02-12T02:41:02.148Z,78.33
2023-02-12T02:43:36.785Z,79.05
2023-02-12T02:46:14.478Z,78.67
2023-02-12T02:48:48.366Z,78.42
2023-02-12T02:51:22.286Z,78.59
2023-02-12T02:54:11.904Z,78.87
2023-02-12T02:56:43.044Z,78.63
2023-02-12T02:59:20.789Z,79.00
2023-02-12T03:01:58.485Z,79.19
2023-02-12T03:04:33.821Z,79.37
2023-02-12T03:07:13.759Z,78.81
2023-02-12T03:09:50.236Z,79.84
2023-02-12T03:12:35.055Z,79.49
2023-02-12T03:15:09.961Z,79.47
2023-02-12T03:17:49.378Z,79.51
2023-02-12T03:20:21.980Z,80.44
2023-02-12T03:22:58.559Z,79.80
2023-02-12T03:25:40.840Z,79.79
2023-02-12T03:28:20.595Z,79.46
2023-02-12T03:30:52.753Z,80.14
2023-02-12T03:33:54.946Z,79.59
2023-02-12T03:36:46.603Z,79.36
2023-02-12T03:39:33.639Z,79.42
2023-02-12T03:42:07.288Z,79.97
2023-02-12T03:44:54.105Z,80.05
2023-02-12T03:47:38.380Z,80.22
2023-02-12T03:50:38.419Z,80.33
2023-02-12T03:53:07.314Z,81.69
2023-02-12T03:55:39.172Z,81.32
2023-02-12T03:58:10.953Z,80.57
2023-02-12T04:00:40.013Z,80.17
2023-02-12T04:03:08.081Z,80.19
2023-02-12T04:05:35.941Z,80.25
2023-02-12T04:08:07.800Z,80.49
2023-02-12T04:11:20.838Z,80.03
2023-02-12T04:13:56.004Z,79.83
2023-02-12T04:16:33.092Z,79.98
2023-02-12T04:19:01.863Z,79.95
2023-02-12T04:22:05.636Z,80.00
2023-02-12T04:24:39.246Z,80.00
2023-02-12T04:27:29.611Z,79.84
2023-02-12T04:30:18.354Z,79.84
2023-02-12T04:33:09.807Z,79.74
2023-02-12T04:35:51.427Z,79.53
2023-02-12T04:38:25.327Z,79.40
2023-02-12T04:40:53.886Z,79.48
2023-02-12T04:43:36.974Z,79.40
2023-02-12T04:46:07.924Z,79.65
2023-02-12T04:48:51.089Z,79.44
2023-02-12T04:51:18.937Z,79.46
2023-02-12T04:53:47.113Z,79.60
2023-02-12T04:56:16.107Z,79.39
2023-02-12T04:58:44.076Z,79.16
2023-02-12T05:01:12.780Z,79.20
2023-02-12T05:03:41.033Z,79.82
2023-02-12T05:06:09.594Z,79.71
2023-02-12T05:08:37.378Z,79.44
2023-02-12T05:11:10.425Z,79.81
2023-02-12T05:13:39.120Z,79.58
2023-02-12T05:16:08.762Z,78.91
2023-02-12T05:18:36.728Z,79.23
2023-02-12T05:21:05.742Z,79.72
2023-02-12T05:23:37.118Z,79.57
2023-02-12T05:26:08.346Z,79.52
2023-02-12T05:28:37.265Z,79.47
2023-02-12T05:31:08.677Z,78.76
2023-02-12T05:33:36.763Z,79.05
2023-02-12T05:36:10.609Z,79.27
2023-02-12T05:38:39.291Z,79.29
2023-02-12T05:41:16.357Z,78.96
2023-02-12T05:43:46.531Z,78.83
2023-02-12T05:46:15.963Z,79.08
2023-02-12T05:48:44.420Z,78.73
2023-02-12T05:51:15.971Z,78.55
2023-02-12T05:53:43.830Z,78.61
2023-02-12T05:56:16.495Z,78.31
2023-02-12T05:58:48.160Z,78.69
2023-02-12T06:01:22.962Z,78.59
2023-02-12T06:03:50.785Z,78.95
2023-02-12T06:06:18.924Z,78.53
2023-02-12T06:08:51.079Z,78.32
2023-02-12T06:11:20.994Z,78.25
2023-02-12T06:13:49.677Z,78.48
2023-02-12T06:16:24.072Z,78.49
2023-02-12T06:18:53.916Z,78.92
2023-02-12T06:21:24.287Z,78.25
2023-02-12T06:23:53.306Z,78.17
2023-02-12T06:26:21.938Z,78.10
2023-02-12T06:28:50.255Z,78.08
2023-02-12T06:31:22.083Z,78.10
2023-02-12T06:33:51.649Z,78.12
2023-02-12T06:36:19.858Z,77.96
2023-02-12T06:38:48.445Z,77.85
2023-02-12T06:41:16.422Z,77.47
2023-02-12T06:43:44.552Z,77.20
2023-02-12T06:46:13.483Z,76.94
2023-02-12T06:48:42.313Z,76.76
2023-02-12T06:51:13.082Z,76.37
2023-02-12T06:53:41.338Z,76.10
2023-02-12T06:56:11.760Z,76.17
2023-02-12T06:58:41.804Z,76.10
2023-02-12T07:01:21.666Z,76.07
2023-02-12T07:03:56.372Z,75.98
2023-02-12T07:06:25.586Z,76.02
2023-02-12T07:08:55.150Z,76.00
2023-02-12T07:11:29.292Z,75.79
2023-02-12T07:13:58.262Z,75.58
2023-02-12T07:16:26.957Z,75.45
2023-02-12T07:18:55.621Z,75.50
2023-02-12T07:21:23.698Z,75.41
2023-02-12T07:23:52.988Z,75.31
2023-02-12T07:26:22.306Z,75.25
2023-02-12T07:28:51.310Z,75.26
2023-02-12T07:31:23.738Z,75.32
2023-02-12T07:33:56.914Z,75.46
2023-02-12T07:36:26.783Z,75.29
2023-02-12T07:38:56.259Z,75.08
2023-02-12T07:41:29.681Z,75.01
2023-02-12T07:44:07.460Z,74.82
2023-02-12T07:46:38.476Z,74.76
2023-02-12T07:49:08.521Z,74.67
2023-02-12T07:51:37.784Z,74.80
2023-02-12T07:54:06.019Z,74.58
2023-02-12T07:56:37.694Z,74.72
2023-02-12T07:59:08.591Z,74.73
2023-02-12T08:01:39.086Z,74.18
2023-02-12T08:04:13.484Z,73.31
2023-02-12T08:06:44.412Z,72.56
2023-02-12T08:09:15.508Z,71.81
2023-02-12T08:11:44.213Z,71.97
2023-02-12T08:14:15.052Z,71.88
2023-02-12T08:16:44.388Z,71.93
2023-02-12T08:19:20.971Z,70.25
2023-02-12T08:21:51.536Z,70.99
2023-02-12T08:24:20.062Z,71.14
2023-02-12T08:26:48.632Z,71.30
2023-02-12T08:29:19.495Z,71.28
2023-02-12T08:31:50.119Z,71.54
2023-02-12T08:34:30.293Z,71.68
2023-02-12T08:36:59.180Z,71.52
2023-02-12T08:39:29.247Z,71.35
2023-02-12T08:41:58.531Z,70.82
2023-02-12T08:44:27.041Z,70.87
2023-02-12T08:46:55.840Z,70.74
2023-02-12T08:49:27.016Z,70.77
2023-02-12T08:51:57.665Z,70.73
2023-02-12T08:54:28.184Z,70.36
2023-02-12T08:56:58.215Z,70.20
2023-02-12T08:59:26.803Z,70.05
2023-02-12T09:01:55.480Z,69.80
2023-02-12T09:04:25.876Z,69.76
2023-02-12T09:06:54.287Z,69.59
2023-02-12T09:09:22.764Z,69.42
2023-02-12T09:11:50.859Z,69.42
2023-02-12T09:14:24.113Z,69.34
2023-02-12T09:16:53.767Z,69.25
2023-02-12T09:19:22.426Z,68.98
2023-02-12T09:21:56.274Z,68.93
2023-02-12T09:24:27.766Z,68.76
2023-02-12T09:26:56.665Z,68.46
2023-02-12T09:29:24.736Z,68.15
2023-02-12T09:31:53.151Z,68.25
2023-02-12T09:34:21.109Z,67.74
2023-02-12T09:36:49.008Z,67.22
2023-02-12T09:39:17.432Z,67.33
2023-02-12T09:42:28.368Z,67.45
2023-02-12T09:45:20.334Z,67.61
2023-02-12T09:48:11.797Z,67.51
2023-02-12T09:50:52.135Z,67.34
2023-02-12T09:53:24.908Z,66.99
2023-02-12T09:55:52.699Z,67.16
2023-02-12T09:58:24.900Z,67.29
2023-02-12T10:00:53.006Z,67.27
2023-02-12T10:03:22.577Z,67.22
2023-02-12T10:06:06.009Z,66.40
2023-02-12T10:09:05.064Z,66.47
2023-02-12T10:12:03.726Z,66.33
2023-02-12T10:15:13.167Z,66.27
2023-02-12T10:17:51.709Z,66.19
2023-02-12T10:20:50.778Z,66.27
2023-02-12T10:23:18.681Z,66.27
2023-02-12T10:26:00.653Z,66.31
2023-02-12T10:28:38.461Z,66.33
2023-02-12T10:31:15.462Z,66.27
2023-02-12T10:33:49.529Z,66.12
2023-02-12T10:36:31.962Z,66.09
2023-02-12T10:39:14.479Z,66.17
2023-02-12T10:41:47.866Z,65.92
2023-02-12T10:44:16.086Z,66.00
2023-02-12T10:46:44.396Z,65.98
2023-02-12T10:49:16.078Z,65.77
2023-02-12T10:51:56.818Z,65.51
2023-02-12T10:54:45.842Z,65.41
2023-02-12T10:57:17.516Z,65.27
2023-02-12T10:59:48.628Z,65.16
2023-02-12T11:02:19.384Z,64.96
2023-02-12T11:04:47.591Z,64.78
2023-02-12T11:07:16.564Z,64.71
2023-02-12T11:09:50.306Z,64.91
2023-02-12T11:12:37.794Z,64.77
2023-02-12T11:15:17.203Z,64.67
2023-02-12T11:17:55.377Z,64.78
2023-02-12T11:20:58.958Z,64.40
2023-02-12T11:23:27.208Z,64.19
2023-02-12T11:26:06.388Z,64.12
2023-02-12T11:28:36.892Z,64.14
2023-02-12T11:31:23.313Z,63.87
2023-02-12T11:34:10.580Z,63.72
2023-02-12T11:36:44.040Z,63.97
2023-02-12T11:39:23.062Z,63.79
2023-02-12T11:41:57.539Z,63.73
2023-02-12T11:44:29.234Z,63.79
2023-02-12T11:47:09.031Z,64.01
2023-02-12T11:49:44.476Z,63.92
2023-02-12T11:52:20.952Z,64.16
2023-02-12T11:54:51.053Z,64.22
2023-02-12T11:57:40.284Z,64.27
2023-02-12T12:00:28.509Z,64.21
2023-02-12T12:03:25.206Z,64.33
2023-02-12T12:05:58.022Z,64.43
2023-02-12T12:08:34.260Z,64.30
2023-02-12T12:11:12.821Z,64.23
2023-02-12T12:14:06.691Z,64.31
2023-02-12T12:17:02.247Z,64.33
2023-02-12T12:19:55.156Z,64.04
2023-02-12T12:22:46.120Z,64.01
2023-02-12T12:25:27.595Z,64.07
2023-02-12T12:28:33.843Z,64.06
2023-02-12T12:31:27.787Z,63.96
2023-02-12T12:34:04.223Z,63.73
2023-02-12T12:36:51.791Z,63.86
2023-02-12T12:39:41.644Z,63.92
2023-02-12T12:42:36.477Z,63.67
2023-02-12T12:45:31.938Z,63.72
2023-02-12T12:48:08.890Z,63.51
2023-02-12T12:51:12.663Z,63.83
2023-02-12T12:54:02.786Z,63.87
2023-02-12T12:56:49.539Z,63.84
2023-02-12T12:59:27.434Z,63.86
2023-02-12T13:02:07.638Z,63.91
2023-02-12T13:05:02.153Z,63.86
2023-02-12T13:07:45.426Z,63.94
2023-02-12T13:10:28.637Z,63.89
2023-02-12T13:13:05.930Z,63.90
2023-02-12T13:15:46.044Z,63.95
2023-02-12T13:18:35.565Z,63.85
2023-02-12T13:21:06.314Z,63.78
2023-02-12T13:23:51.869Z,63.90
2023-02-12T13:26:30.811Z,63.91
2023-02-12T13:29:13.245Z,63.80
2023-02-12T13:31:49.469Z,63.74
2023-02-12T13:34:19.619Z,63.69
2023-02-12T13:36:50.082Z,63.62
2023-02-12T13:39:38.047Z,63.55
2023-02-12T13:42:23.794Z,63.29
2023-02-12T13:45:03.468Z,63.31
2023-02-12T13:47:58.078Z,63.51
2023-02-12T13:50:42.100Z,63.49
2023-02-12T13:53:13.177Z,63.43
2023-02-12T13:56:27.960Z,63.40
2023-02-12T13:59:00.402Z,63.39
2023-02-12T14:01:49.994Z,63.68
2023-02-12T14:04:27.756Z,63.98
2023-02-12T14:07:01.533Z,63.93
2023-02-12T14:09:32.910Z,64.24
2023-02-12T14:12:07.188Z,64.32
2023-02-12T14:14:42.966Z,64.18
2023-02-12T14:17:30.355Z,64.20
2023-02-12T14:20:27.450Z,64.07
2023-02-12T14:23:23.066Z,63.79
2023-02-12T14:26:11.534Z,63.62
2023-02-12T14:29:02.406Z,63.48
2023-02-12T14:31:33.136Z,63.31
2023-02-12T14:34:05.203Z,63.45
2023-02-12T14:36:41.270Z,63.74
2023-02-12T14:39:21.579Z,63.91
2023-02-12T14:41:54.966Z,63.99
2023-02-12T14:44:23.452Z,64.04
2023-02-12T14:47:17.639Z,64.10
2023-02-12T14:49:49.325Z,64.36
2023-02-12T14:52:24.242Z,64.40
2023-02-12T14:55:04.154Z,64.36
2023-02-12T14:57:40.326Z,64.44
2023-02-12T15:00:18.299Z,64.50
2023-02-12T15:03:25.658Z,64.46
2023-02-12T15:06:04.970Z,64.48
2023-02-12T15:08:52.576Z,64.63
2023-02-12T15:11:31.259Z,64.54
2023-02-12T15:14:31.206Z,64.84
2023-02-12T15:17:15.370Z,64.82
2023-02-12T15:19:45.057Z,64.97
2023-02-12T15:22:29.770Z,65.16
2023-02-12T15:25:23.507Z,65.10
2023-02-12T15:27:56.800Z,65.28
2023-02-12T15:30:28.241Z,65.71
2023-02-12T15:32:58.900Z,66.17
2023-02-12T15:35:30.608Z,66.75
2023-02-12T15:38:03.520Z,67.06
2023-02-12T15:40:32.061Z,67.41
2023-02-12T15:43:17.143Z,67.47
2023-02-12T15:45:52.628Z,67.98
2023-02-12T15:48:23.476Z,68.36
2023-02-12T15:51:13.702Z,69.00
2023-02-12T15:53:42.780Z,69.35
2023-02-12T15:56:16.003Z,69.32
2023-02-12T15:58:54.909Z,69.22
2023-02-12T16:01:29.204Z,69.41
2023-02-12T16:04:00.632Z,69.45
2023-02-12T16:06:34.302Z,69.32
2023-02-12T16:09:08.460Z,69.43
2023-02-12T16:11:38.139Z,69.51
2023-02-12T16:14:19.040Z,69.36
2023-02-12T16:16:50.187Z,69.57
2023-02-12T16:19:20.939Z,70.01
2023-02-12T16:22:08.871Z,70.58
2023-02-12T16:24:45.903Z,70.76
2023-02-12T16:27:34.186Z,70.92
2023-02-12T16:30:23.698Z,70.96
